createdAt,value
2022-11-19T00:02:02.885Z,99895.00
2022-11-19T00:04:30.907Z,99893.00
2022-11-19T00:06:58.876Z,99896.00
2022-11-19T00:09:26.703Z,99893.00
2022-11-19T00:12:13.028Z,99893.00
2022-11-19T00:14:41.386Z,99889.00
2022-11-19T00:17:09.475Z,99889.00
2022-11-19T00:19:37.230Z,99896.00
2022-11-19T00:22:05.064Z,99894.00
2022-11-19T00:24:32.955Z,99896.00
2022-11-19T00:27:00.665Z,99901.00
2022-11-19T00:29:28.456Z,99895.00
2022-11-19T00:31:56.385Z,99901.00
2022-11-19T00:34:24.275Z,99902.00
2022-11-19T00:36:52.249Z,99904.00
2022-11-19T00:39:21.293Z,99902.00
2022-11-19T00:41:52.737Z,99897.00
2022-11-19T00:44:20.650Z,99901.00
2022-11-19T00:46:48.416Z,99897.00
2022-11-19T00:49:16.318Z,99903.00
2022-11-19T00:51:44.221Z,99904.00
2022-11-19T00:54:12.100Z,99901.00
2022-11-19T00:56:39.966Z,99906.00
2022-11-19T00:59:10.493Z,99906.00
2022-11-19T01:01:38.412Z,99908.00
2022-11-19T01:04:06.786Z,99918.00
2022-11-19T01:06:34.667Z,99913.00
2022-11-19T01:09:02.463Z,99914.00
2022-11-19T01:11:33.538Z,99920.00
2022-11-19T01:14:02.784Z,99920.00
2022-11-19T01:16:36.489Z,99929.00
2022-11-19T01:19:05.119Z,99924.00
2022-11-19T01:21:34.610Z,99925.00
2022-11-19T01:24:03.298Z,99935.00
2022-11-19T01:26:31.453Z,99939.00
2022-11-19T01:28:59.494Z,99933.00
2022-11-19T01:31:29.412Z,99933.00
2022-11-19T01:33:57.624Z,99933.00
2022-11-19T01:36:27.569Z,99925.00
2022-11-19T01:38:56.002Z,99940.00
2022-11-19T01:41:32.213Z,99941.00
2022-11-19T01:44:07.861Z,99940.00
2022-11-19T01:46:37.532Z,99938.00
2022-11-19T01:49:13.492Z,99939.00
2022-11-19T01:51:45.146Z,99941.00
2022-11-19T01:54:39.501Z,99938.00
2022-11-19T01:57:13.039Z,99945.00
2022-11-19T01:59:42.498Z,99948.00
2022-11-19T02:02:10.603Z,99941.00
2022-11-19T02:04:38.480Z,99939.00
2022-11-19T02:07:07.536Z,99946.00
2022-11-19T02:09:35.628Z,99938.00
2022-11-19T02:12:18.810Z,99943.00
2022-11-19T02:15:05.218Z,99941.00
2022-11-19T02:18:03.946Z,99944.00
2022-11-19T02:20:45.144Z,99943.00
2022-11-19T02:23:46.434Z,99949.00
2022-11-19T02:26:36.471Z,99936.00
2022-11-19T02:29:32.286Z,99939.00
2022-11-19T02:32:16.154Z,99947.00
2022-11-19T02:35:05.079Z,99953.00
2022-11-19T02:37:54.011Z,99956.00
2022-11-19T02:40:35.322Z,99959.00
2022-11-19T02:43:31.011Z,99960.00
2022-11-19T02:45:59.895Z,99958.00
2022-11-19T02:48:41.279Z,99964.00
2022-11-19T02:51:09.446Z,99959.00
2022-11-19T02:53:37.279Z,99965.00
2022-11-19T02:56:17.948Z,99968.00
2022-11-19T02:59:11.598Z,99976.00
2022-11-19T03:02:02.763Z,99979.00
2022-11-19T03:04:31.403Z,99981.00
2022-11-19T03:07:11.778Z,99981.00
2022-11-19T03:09:52.167Z,99983.00
2022-11-19T03:12:25.299Z,99976.00
2022-11-19T03:15:16.050Z,99974.00
2022-11-19T03:18:43.360Z,99980.00
2022-11-19T03:21:22.633Z,99985.00
2022-11-19T03:24:00.974Z,99987.00
2022-11-19T03:26:32.299Z,99986.00
2022-11-19T03:29:03.828Z,99993.00
2022-11-19T03:31:32.966Z,99985.00
2022-11-19T03:34:03.867Z,99990.00
2022-11-19T03:36:35.891Z,99989.00
2022-11-19T03:39:08.163Z,99988.00
2022-11-19T03:41:37.129Z,99992.00
2022-11-19T03:44:18.943Z,99991.00
2022-11-19T03:46:48.084Z,99987.00
2022-11-19T03:49:16.728Z,99994.00
2022-11-19T03:51:54.320Z,99990.00
2022-11-19T03:54:22.267Z,99999.00
2022-11-19T03:56:51.084Z,99995.00
2022-11-19T03:59:21.100Z,100005.00
2022-11-19T04:01:52.649Z,100013.00
2022-11-19T04:04:38.793Z,100013.00
2022-11-19T04:07:20.170Z,100022.00
2022-11-19T04:09:48.369Z,100021.00
2022-11-19T04:12:25.906Z,100016.00
2022-11-19T04:14:53.928Z,100024.00
2022-11-19T04:17:21.899Z,100026.00
2022-11-19T04:19:49.702Z,100025.00
2022-11-19T04:22:17.875Z,100024.00
2022-11-19T04:24:45.727Z,100025.00
2022-11-19T04:27:13.711Z,100030.00
2022-11-19T04:29:41.668Z,100032.00
2022-11-19T04:32:09.566Z,100031.00
2022-11-19T04:34:37.208Z,100034.00
2022-11-19T04:37:05.063Z,100027.00
2022-11-19T04:39:33.029Z,100027.00
2022-11-19T04:42:00.911Z,100023.00
2022-11-19T04:44:29.225Z,100019.00
2022-11-19T04:46:57.136Z,100020.00
2022-11-19T04:49:25.087Z,100018.00
2022-11-19T04:51:53.094Z,100021.00
2022-11-19T04:54:21.016Z,100013.00
2022-11-19T04:56:49.039Z,100018.00
2022-11-19T04:59:17.029Z,100013.00
2022-11-19T05:01:47.675Z,100001.00
2022-11-19T05:04:15.572Z,100011.00
2022-11-19T05:06:43.532Z,100006.00
2022-11-19T05:09:11.513Z,100011.00
2022-11-19T05:11:39.358Z,100012.00
2022-11-19T05:14:06.997Z,100008.00
2022-11-19T05:16:34.729Z,100013.00
2022-11-19T05:19:02.547Z,100010.00
2022-11-19T05:21:30.479Z,100010.00
2022-11-19T05:23:58.377Z,100018.00
2022-11-19T05:26:26.085Z,100004.00
2022-11-19T05:28:53.850Z,100003.00
2022-11-19T05:31:21.591Z,100001.00
2022-11-19T05:33:49.460Z,100001.00
2022-11-19T05:36:17.385Z,99993.00
2022-11-19T05:38:45.089Z,100005.00
2022-11-19T05:41:12.846Z,100007.00
2022-11-19T05:43:40.682Z,100010.00
2022-11-19T05:46:08.638Z,100012.00
2022-11-19T05:48:36.436Z,100011.00
2022-11-19T05:51:04.216Z,100021.00
2022-11-19T05:53:32.004Z,100027.00
2022-11-19T05:55:59.746Z,100031.00
2022-11-19T05:58:27.544Z,100031.00
2022-11-19T06:01:00.175Z,100030.00
2022-11-19T06:03:28.117Z,100035.00
2022-11-19T06:05:55.834Z,100040.00
2022-11-19T06:08:23.709Z,100039.00
2022-11-19T06:10:51.557Z,100037.00
2022-11-19T06:13:19.509Z,100033.00
2022-11-19T06:15:47.411Z,100037.00
2022-11-19T06:18:15.288Z,100044.00
2022-11-19T06:20:43.320Z,100045.00
2022-11-19T06:23:11.180Z,100038.00
2022-11-19T06:25:39.221Z,100040.00
2022-11-19T06:28:07.772Z,100047.00
2022-11-19T06:30:35.940Z,100048.00
2022-11-19T06:33:03.778Z,100051.00
2022-11-19T06:35:31.556Z,100063.00
2022-11-19T06:37:59.594Z,100063.00
2022-11-19T06:40:27.478Z,100066.00
2022-11-19T06:42:55.505Z,100077.00
2022-11-19T06:45:23.391Z,100069.00
2022-11-19T06:47:51.412Z,100081.00
2022-11-19T06:50:19.209Z,100076.00
2022-11-19T06:52:47.228Z,100083.00
2022-11-19T06:55:15.322Z,100081.00
2022-11-19T06:57:43.336Z,100081.00
2022-11-19T07:00:12.610Z,100086.00
2022-11-19T07:02:41.137Z,100080.00
2022-11-19T07:05:09.194Z,100083.00
2022-11-19T07:07:37.077Z,100084.00
2022-11-19T07:10:05.202Z,100080.00
2022-11-19T07:12:33.304Z,100083.00
2022-11-19T07:15:04.353Z,100073.00
2022-11-19T07:17:33.073Z,100086.00
2022-11-19T07:20:01.015Z,100085.00
2022-11-19T07:22:29.194Z,100093.00
2022-11-19T07:24:57.385Z,100094.00
2022-11-19T07:27:25.216Z,100092.00
2022-11-19T07:29:53.237Z,100097.00
2022-11-19T07:32:21.139Z,100090.00
2022-11-19T07:34:49.230Z,100092.00
2022-11-19T07:37:16.996Z,100095.00
2022-11-19T07:39:47.211Z,100096.00
2022-11-19T07:42:33.627Z,100096.00
2022-11-19T07:45:09.842Z,100091.00
2022-11-19T07:47:37.772Z,100101.00
2022-11-19T07:50:06.159Z,100099.00
2022-11-19T07:52:34.081Z,100106.00
2022-11-19T07:55:02.271Z,100101.00
2022-11-19T07:57:30.650Z,100098.00
2022-11-19T07:59:58.624Z,100101.00
2022-11-19T08:02:26.744Z,100102.00
2022-11-19T08:04:54.748Z,100111.00
2022-11-19T08:07:22.873Z,100114.00
2022-11-19T08:09:51.245Z,100101.00
2022-11-19T08:12:22.380Z,100105.00
2022-11-19T08:14:50.402Z,100100.00
2022-11-19T08:17:36.565Z,100100.00
2022-11-19T08:20:04.922Z,100095.00
2022-11-19T08:22:32.908Z,100099.00
2022-11-19T08:25:00.856Z,100093.00
2022-11-19T08:27:28.782Z,100096.00
2022-11-19T08:29:56.501Z,100091.00
2022-11-19T08:32:24.405Z,100095.00
2022-11-19T08:34:52.726Z,100089.00
2022-11-19T08:37:20.628Z,100087.00
2022-11-19T08:39:48.668Z,100082.00
2022-11-19T08:42:35.386Z,100079.00
2022-11-19T08:45:03.222Z,100084.00
2022-11-19T08:47:31.219Z,100087.00
2022-11-19T08:49:59.018Z,100078.00
2022-11-19T08:52:26.846Z,100091.00
2022-11-19T08:54:54.846Z,100088.00
2022-11-19T08:57:23.570Z,100097.00
2022-11-19T08:59:52.369Z,100094.00
2022-11-19T09:02:20.288Z,100099.00
2022-11-19T09:04:48.324Z,100100.00
2022-11-19T09:07:16.258Z,100095.00
2022-11-19T09:09:44.297Z,100097.00
2022-11-19T09:12:12.329Z,100095.00
2022-11-19T09:14:40.185Z,100100.00
2022-11-19T09:17:08.001Z,100103.00
2022-11-19T09:19:35.748Z,100101.00
2022-11-19T09:22:03.623Z,100103.00
2022-11-19T09:24:31.430Z,100101.00
2022-11-19T09:27:02.233Z,100094.00
2022-11-19T09:29:30.476Z,100096.00
2022-11-19T09:31:58.979Z,100101.00
2022-11-19T09:34:26.677Z,100100.00
2022-11-19T09:36:54.584Z,100113.00
2022-11-19T09:39:22.416Z,100112.00
2022-11-19T09:41:57.003Z,100103.00
2022-11-19T09:45:02.461Z,100104.00
2022-11-19T09:47:59.762Z,100104.00
2022-11-19T09:50:49.012Z,100108.00
2022-11-19T09:53:22.892Z,100096.00
2022-11-19T09:55:52.938Z,100096.00
2022-11-19T09:58:34.886Z,100095.00
2022-11-19T10:01:03.178Z,100092.00
2022-11-19T10:03:33.931Z,100093.00
2022-11-19T10:06:24.115Z,100087.00
2022-11-19T10:09:12.844Z,100090.00
2022-11-19T10:12:02.246Z,100084.00
2022-11-19T10:14:50.883Z,100093.00
2022-11-19T10:17:27.777Z,100091.00
2022-11-19T10:20:28.957Z,100087.00
2022-11-19T10:23:36.744Z,100088.00
2022-11-19T10:26:07.363Z,100073.00
2022-11-19T10:28:40.222Z,100080.00
2022-11-19T10:31:27.485Z,100077.00
2022-11-19T10:34:16.637Z,100073.00
2022-11-19T10:36:47.780Z,100077.00
2022-11-19T10:39:46.444Z,100082.00
2022-11-19T10:42:24.941Z,100078.00
2022-11-19T10:45:16.170Z,100075.00
2022-11-19T10:48:09.391Z,100070.00
2022-11-19T10:50:37.888Z,100070.00
2022-11-19T10:53:29.775Z,100063.00
2022-11-19T10:56:00.947Z,100055.00
2022-11-19T10:58:39.572Z,100053.00
2022-11-19T11:01:34.580Z,100057.00
2022-11-19T11:04:21.407Z,100061.00
2022-11-19T11:06:59.063Z,100066.00
2022-11-19T11:09:38.481Z,100059.00
2022-11-19T11:12:36.743Z,100055.00
2022-11-19T11:15:16.429Z,100055.00
2022-11-19T11:17:46.867Z,100058.00
2022-11-19T11:20:17.678Z,100058.00
2022-11-19T11:22:47.192Z,100057.00
2022-11-19T11:25:26.402Z,100044.00
2022-11-19T11:28:18.185Z,100038.00
2022-11-19T11:31:00.201Z,100031.00
2022-11-19T11:33:42.886Z,100031.00
2022-11-19T11:36:16.172Z,100030.00
2022-11-19T11:38:48.990Z,100026.00
2022-11-19T11:44:20.483Z,100015.00
2022-11-19T11:46:53.304Z,100019.00
2022-11-19T11:49:35.610Z,100017.00
2022-11-19T11:52:11.901Z,100020.00
2022-11-19T11:55:14.255Z,100020.00
2022-11-19T11:57:58.099Z,100017.00
2022-11-19T12:00:33.642Z,100011.00
2022-11-19T12:03:10.158Z,100017.00
2022-11-19T12:05:50.182Z,100010.00
2022-11-19T12:09:15.385Z,100007.00
2022-11-19T12:11:58.242Z,100014.00
2022-11-19T12:14:26.104Z,100004.00
2022-11-19T12:17:05.960Z,100001.00
2022-11-19T12:20:19.046Z,100002.00
2022-11-19T12:23:03.296Z,100001.00
2022-11-19T12:25:57.079Z,100005.00
2022-11-19T12:28:54.876Z,99999.00
2022-11-19T12:31:40.808Z,100001.00
2022-11-19T12:34:30.402Z,100002.00
2022-11-19T12:37:12.975Z,99997.00
2022-11-19T12:39:54.377Z,99996.00
2022-11-19T12:42:43.701Z,99992.00
2022-11-19T12:45:18.708Z,99989.00
2022-11-19T12:48:21.807Z,99986.00
2022-11-19T12:51:13.084Z,99986.00
2022-11-19T12:54:01.788Z,99992.00
2022-11-19T12:56:43.772Z,99992.00
2022-11-19T12:59:48.698Z,99991.00
2022-11-19T13:02:27.098Z,99992.00
2022-11-19T13:05:11.771Z,99982.00
2022-11-19T13:07:47.512Z,99986.00
2022-11-19T13:10:19.473Z,99984.00
2022-11-19T13:12:50.546Z,99993.00
2022-11-19T13:15:23.358Z,99989.00
2022-11-19T13:18:00.139Z,99988.00
2022-11-19T13:20:48.921Z,99983.00
2022-11-19T13:23:24.639Z,99977.00
2022-11-19T13:26:02.257Z,99979.00
2022-11-19T13:29:06.878Z,99974.00
2022-11-19T13:31:40.964Z,99977.00
2022-11-19T13:34:32.710Z,99978.00
2022-11-19T13:37:32.540Z,99977.00
2022-11-19T13:40:26.327Z,99982.00
2022-11-19T13:46:24.561Z,99978.00
2022-11-19T13:49:00.921Z,99989.00
2022-11-19T13:51:41.198Z,99991.00
2022-11-19T13:54:15.468Z,99992.00
2022-11-19T13:56:46.763Z,99986.00
2022-11-19T13:59:44.800Z,99981.00
2022-11-19T14:02:31.251Z,99984.00
2022-11-19T14:05:05.290Z,99984.00
2022-11-19T14:07:36.080Z,99977.00
2022-11-19T14:10:39.790Z,99975.00
2022-11-19T14:13:24.160Z,99970.00
2022-11-19T14:16:32.849Z,99972.00
2022-11-19T14:19:29.350Z,99963.00
2022-11-19T14:22:15.459Z,99967.00
2022-11-19T14:25:07.950Z,99968.00
2022-11-19T14:27:35.888Z,99965.00
2022-11-19T14:30:13.885Z,99967.00
2022-11-19T14:32:49.809Z,99967.00
2022-11-19T14:35:33.198Z,99968.00
2022-11-19T14:38:32.100Z,99967.00
2022-11-19T14:41:15.461Z,99965.00
2022-11-19T14:44:09.542Z,99959.00
2022-11-19T14:46:39.759Z,99953.00
2022-11-19T14:49:26.618Z,99954.00
2022-11-19T14:51:58.011Z,99960.00
2022-11-19T14:54:54.396Z,99949.00
2022-11-19T14:57:34.758Z,99954.00
2022-11-19T15:00:05.655Z,99942.00
2022-11-19T15:02:40.157Z,99950.00
2022-11-19T15:05:37.049Z,99943.00
2022-11-19T15:08:19.945Z,99943.00
2022-11-19T15:11:11.600Z,99950.00
2022-11-19T15:13:49.242Z,99953.00
2022-11-19T15:16:19.794Z,99947.00
2022-11-19T15:18:53.867Z,99940.00
2022-11-19T15:21:24.208Z,99945.00
2022-11-19T15:23:57.548Z,99946.00
2022-11-19T15:26:51.723Z,99945.00
2022-11-19T15:29:28.777Z,99946.00
2022-11-19T15:32:29.361Z,99936.00
2022-11-19T15:35:18.611Z,99932.00
2022-11-19T15:38:19.988Z,99930.00
2022-11-19T15:40:50.386Z,99933.00
2022-11-19T15:43:31.740Z,99932.00
2022-11-19T15:46:07.529Z,99939.00
2022-11-19T15:49:01.158Z,99933.00
2022-11-19T15:51:30.201Z,99935.00
2022-11-19T15:53:59.786Z,99932.00
2022-11-19T15:56:29.993Z,99928.00
2022-11-19T15:58:58.015Z,99929.00
2022-11-19T16:01:26.384Z,99928.00
2022-11-19T16:03:54.907Z,99923.00
2022-11-19T16:06:29.341Z,99934.00
2022-11-19T16:09:00.626Z,99926.00
2022-11-19T16:11:49.430Z,99924.00
2022-11-19T16:14:41.220Z,99928.00
2022-11-19T16:17:33.387Z,99924.00
2022-11-19T16:20:06.819Z,99928.00
2022-11-19T16:22:39.805Z,99927.00
2022-11-19T16:25:52.012Z,99918.00
2022-11-19T16:28:25.768Z,99924.00
2022-11-19T16:30:58.966Z,99928.00
2022-11-19T16:33:29.179Z,99927.00
2022-11-19T16:36:19.951Z,99925.00
2022-11-19T16:38:50.092Z,99927.00
2022-11-19T16:41:38.773Z,99923.00
2022-11-19T16:44:16.350Z,99916.00
2022-11-19T16:46:44.314Z,99917.00
2022-11-19T16:49:24.648Z,99917.00
2022-11-19T16:51:53.769Z,99924.00
2022-11-19T16:54:50.353Z,99915.00
2022-11-19T16:57:20.779Z,99928.00
2022-11-19T16:59:59.756Z,99922.00
2022-11-19T17:02:36.864Z,99918.00
2022-11-19T17:05:13.482Z,99921.00
2022-11-19T17:07:50.164Z,99930.00
2022-11-19T17:10:22.805Z,99924.00
2022-11-19T17:12:55.024Z,99928.00
2022-11-19T17:15:37.294Z,99929.00
2022-11-19T17:18:21.347Z,99935.00
2022-11-19T17:21:01.231Z,99917.00
2022-11-19T17:23:31.714Z,99916.00
2022-11-19T17:26:08.106Z,99915.00
2022-11-19T17:28:38.639Z,99920.00
2022-11-19T17:31:23.049Z,99923.00
2022-11-19T17:34:18.315Z,99926.00
2022-11-19T17:36:46.311Z,99924.00
2022-11-19T17:39:15.111Z,99928.00
2022-11-19T17:42:02.634Z,99926.00
2022-11-19T17:44:39.336Z,99930.00
2022-11-19T17:47:33.432Z,99933.00
2022-11-19T17:50:01.480Z,99926.00
2022-11-19T17:52:31.201Z,99929.00
2022-11-19T17:55:15.819Z,99935.00
2022-11-19T17:57:43.984Z,99938.00
2022-11-19T18:00:12.750Z,99940.00
2022-11-19T18:02:40.738Z,99939.00
2022-11-19T18:05:19.338Z,99930.00
2022-11-19T18:07:47.247Z,99934.00
2022-11-19T18:10:15.339Z,99931.00
2022-11-19T18:12:43.380Z,99934.00
2022-11-19T18:15:17.897Z,99933.00
2022-11-19T18:17:46.058Z,99932.00
2022-11-19T18:20:14.156Z,99932.00
2022-11-19T18:22:42.357Z,99936.00
2022-11-19T18:25:22.201Z,99930.00
2022-11-19T18:27:50.142Z,99932.00
2022-11-19T18:30:18.130Z,99938.00
2022-11-19T18:32:46.064Z,99941.00
2022-11-19T18:35:18.852Z,99936.00
2022-11-19T18:37:49.876Z,99932.00
2022-11-19T18:40:17.646Z,99930.00
2022-11-19T18:43:04.030Z,99930.00
2022-11-19T18:45:32.120Z,99926.00
2022-11-19T18:48:00.030Z,99933.00
2022-11-19T18:50:30.171Z,99929.00
2022-11-19T18:52:58.538Z,99932.00
2022-11-19T18:55:26.282Z,99935.00
2022-11-19T18:57:54.166Z,99935.00
2022-11-19T19:00:22.176Z,99939.00
2022-11-19T19:02:49.916Z,99939.00
2022-11-19T19:05:17.915Z,99940.00
2022-11-19T19:07:45.748Z,99943.00
2022-11-19T19:10:14.160Z,99945.00
2022-11-19T19:12:42.676Z,99947.00
2022-11-19T19:15:10.758Z,99940.00
2022-11-19T19:17:38.501Z,99940.00
2022-11-19T19:20:06.802Z,99941.00
2022-11-19T19:22:35.270Z,99938.00
2022-11-19T19:25:05.299Z,99940.00
2022-11-19T19:27:33.397Z,99935.00
2022-11-19T19:30:01.208Z,99934.00
2022-11-19T19:32:31.833Z,99942.00
2022-11-19T19:34:59.797Z,99937.00
2022-11-19T19:37:27.645Z,99937.00
2022-11-19T19:39:55.663Z,99941.00
2022-11-19T19:42:23.870Z,99948.00
2022-11-19T19:44:51.828Z,99953.00
2022-11-19T19:47:19.722Z,99944.00
2022-11-19T19:49:48.812Z,99953.00
2022-11-19T19:52:16.793Z,99951.00
2022-11-19T19:54:44.711Z,99949.00
2022-11-19T19:57:12.846Z,99947.00
2022-11-19T19:59:40.689Z,99947.00
2022-11-19T20:02:10.720Z,99942.00
2022-11-19T20:04:38.559Z,99942.00
2022-11-19T20:07:07.032Z,99950.00
2022-11-19T20:09:34.935Z,99951.00
2022-11-19T20:12:02.735Z,99949.00
2022-11-19T20:14:30.592Z,99958.00
2022-11-19T20:16:58.643Z,99958.00
2022-11-19T20:19:26.573Z,99961.00
2022-11-19T20:21:54.912Z,99959.00
2022-11-19T20:24:22.845Z,99960.00
2022-11-19T20:26:50.702Z,99968.00
2022-11-19T20:29:20.595Z,99964.00
2022-11-19T20:31:49.601Z,99960.00
2022-11-19T20:34:18.075Z,99962.00
2022-11-19T20:36:46.310Z,99960.00
2022-11-19T20:39:14.255Z,99955.00
2022-11-19T20:42:00.725Z,99952.00
2022-11-19T20:44:28.701Z,99957.00
2022-11-19T20:47:02.505Z,99947.00
2022-11-19T20:49:33.009Z,99952.00
2022-11-19T20:52:01.430Z,99956.00
2022-11-19T20:54:29.377Z,99954.00
2022-11-19T20:56:58.135Z,99955.00
2022-11-19T20:59:26.837Z,99950.00
2022-11-19T21:01:55.842Z,99947.00
2022-11-19T21:04:25.249Z,99951.00
2022-11-19T21:06:55.993Z,99946.00
2022-11-19T21:09:24.775Z,99951.00
2022-11-19T21:11:53.206Z,99947.00
2022-11-19T21:14:21.508Z,99944.00
2022-11-19T21:16:49.360Z,99935.00
2022-11-19T21:19:17.309Z,99934.00
2022-11-19T21:21:45.783Z,99922.00
2022-11-19T21:24:13.654Z,99924.00
2022-11-19T21:26:41.372Z,99932.00
2022-11-19T21:29:09.114Z,99938.00
2022-11-19T21:31:48.516Z,99929.00
2022-11-19T21:34:18.421Z,99931.00
2022-11-19T21:36:47.287Z,99926.00
2022-11-19T21:39:16.814Z,99923.00
2022-11-19T21:41:45.053Z,99922.00
2022-11-19T21:44:16.739Z,99915.00
2022-11-19T21:46:46.369Z,99912.00
2022-11-19T21:49:15.020Z,99909.00
2022-11-19T21:51:43.543Z,99922.00
2022-11-19T21:54:11.439Z,99909.00
2022-11-19T21:56:39.362Z,99908.00
2022-11-19T21:59:07.953Z,99912.00
2022-11-19T22:01:35.999Z,99908.00
2022-11-19T22:04:04.452Z,99911.00
2022-11-19T22:06:33.328Z,99913.00
2022-11-19T22:09:01.225Z,99910.00
2022-11-19T22:11:29.187Z,99904.00
2022-11-19T22:14:04.240Z,99901.00
2022-11-19T22:16:34.782Z,99906.00
2022-11-19T22:19:02.766Z,99903.00
2022-11-19T22:21:30.817Z,99898.00
2022-11-19T22:23:59.035Z,99898.00
2022-11-19T22:26:26.995Z,99901.00
2022-11-19T22:28:55.001Z,99898.00
2022-11-19T22:31:23.818Z,99897.00
2022-11-19T22:33:52.387Z,99904.00
2022-11-19T22:36:23.899Z,99904.00
2022-11-19T22:38:52.460Z,99908.00
2022-11-19T22:41:21.764Z,99912.00
2022-11-19T22:43:50.143Z,99905.00
2022-11-19T22:46:18.989Z,99908.00
2022-11-19T22:48:47.178Z,99907.00
2022-11-19T22:51:23.222Z,99910.00
2022-11-19T22:53:52.157Z,99906.00
2022-11-19T22:56:25.831Z,99913.00
2022-11-19T22:58:54.138Z,99914.00
2022-11-19T23:01:27.416Z,99911.00
2022-11-19T23:03:57.097Z,99908.00
2022-11-19T23:06:25.138Z,99914.00
2022-11-19T23:08:53.744Z,99913.00
2022-11-19T23:11:41.261Z,99914.00
2022-11-19T23:14:17.242Z,99905.00
2022-11-19T23:16:45.450Z,99901.00
2022-11-19T23:19:14.657Z,99899.00
2022-11-19T23:21:42.977Z,99893.00
2022-11-19T23:24:11.046Z,99896.00
2022-11-19T23:26:38.983Z,99893.00
2022-11-19T23:29:07.281Z,99903.00
2022-11-19T23:31:37.599Z,99894.00
2022-11-19T23:34:05.517Z,99887.00
2022-11-19T23:36:35.637Z,99888.00
2022-11-19T23:39:05.486Z,99889.00
2022-11-19T23:41:34.615Z,99890.00
2022-11-19T23:44:03.041Z,99889.00
2022-11-19T23:46:32.981Z,99888.00
2022-11-19T23:49:01.617Z,99892.00
2022-11-19T23:51:37.593Z,99887.00
2022-11-19T23:54:06.309Z,99895.00
2022-11-19T23:56:36.104Z,99886.00
2022-11-19T23:59:05.707Z,99887.00
